Time;durP1;ratioP1;P1;durP2;ratioP2;P2;SDS_P1;SDS_P2;PMS_P1;PMS_P2;Temp;Humidity;BMP_temperature;BMP_pressure;BME280_temperature;BME280_humidity;BME280_pressure;Samples;Min_cycle;Max_cycle;Signal;HPM_P1;HPM_P2
2022/01/03 00:03:00;;;;;;;0.47;0.20;;;;;;;12.33;100.00;98799.19;6242708;22;20471;-52
2022/01/03 00:06:04;;;;;;;0.70;0.35;;;;;;;12.39;100.00;98791.53;6243049;22;20027;-51
2022/01/03 00:09:08;;;;;;;0.55;0.30;;;;;;;12.28;100.00;98804.81;6243011;22;20035;-52
2022/01/03 00:12:12;;;;;;;10.02;0.63;;;;;;;12.19;100.00;98803.78;6242966;22;20031;-52
2022/01/03 00:15:18;;;;;;;0.20;0.10;;;;;;;12.09;100.00;98791.41;6242776;22;20381;-51
2022/01/03 00:18:21;;;;;;;5.68;1.75;;;;;;;12.14;100.00;98799.00;6242287;22;20031;-51
2022/01/03 00:21:33;;;;;;;0.13;0.13;;;;;;;12.07;100.00;98801.56;6242707;22;20555;-52
2022/01/03 00:24:42;;;;;;;3.05;0.80;;;;;;;12.05;100.00;98809.69;6243967;22;20437;-51
2022/01/03 00:27:49;;;;;;;2.92;0.32;;;;;;;12.09;100.00;98824.88;6242966;22;20035;-52
2022/01/03 00:30:57;;;;;;;5.15;0.40;;;;;;;12.00;100.00;98822.38;6242884;22;20023;-52
2022/01/03 00:34:06;;;;;;;0.22;0.22;;;;;;;12.02;100.00;98824.63;6243062;22;20334;-52
2022/01/03 00:37:10;;;;;;;2.58;0.50;;;;;;;11.94;100.00;98829.22;6242561;22;20039;-51
2022/01/03 00:40:21;;;;;;;0.57;0.55;;;;;;;11.98;100.00;98827.69;6242212;22;20031;-52
2022/01/03 00:43:26;;;;;;;0.77;0.45;;;;;;;12.01;100.00;98834.28;6242056;22;20024;-51
2022/01/03 00:46:32;;;;;;;1.20;0.65;;;;;;;11.98;100.00;98830.50;6243374;22;20047;-51
2022/01/03 00:49:40;;;;;;;3.25;1.30;;;;;;;11.93;100.00;98836.84;6242731;22;20480;-51
2022/01/03 00:52:45;;;;;;;0.55;0.38;;;;;;;11.92;100.00;98834.56;6243266;22;20460;-51
2022/01/03 00:56:02;;;;;;;0.10;0.10;;;;;;;11.99;100.00;98832.03;6243028;22;20031;-52
2022/01/03 00:59:11;;;;;;;1.35;0.20;;;;;;;11.96;100.00;98821.88;6242690;22;20022;-52
2022/01/03 01:02:17;;;;;;;2.60;0.35;;;;;;;11.91;100.00;98825.41;6243211;22;20032;-51
2022/01/03 01:05:22;;;;;;;0.63;0.22;;;;;;;11.76;100.00;98830.50;6242359;22;20031;-51
2022/01/03 01:08:28;;;;;;;6.70;0.40;;;;;;;11.65;100.00;98822.13;6243671;22;20031;-52
2022/01/03 01:11:32;;;;;;;0.30;0.30;;;;;;;11.51;100.00;98820.38;6243854;22;20043;-51
2022/01/03 01:14:35;;;;;;;0.30;0.30;;;;;;;11.39;100.00;98830.00;6243604;22;20035;-51
2022/01/03 01:17:40;;;;;;;1.80;0.20;;;;;;;11.40;100.00;98818.34;6243258;22;20075;-52
2022/01/03 01:20:43;;;;;;;0.40;0.40;;;;;;;11.32;100.00;98819.34;6242229;22;20353;-51
2022/01/03 01:23:49;;;;;;;1.10;0.20;;;;;;;11.27;100.00;98817.31;6242977;22;20027;-52
2022/01/03 01:30:22;;;;;;;0.57;0.57;;;;;;;11.26;100.00;98838.84;6242841;22;20035;-52
2022/01/03 01:33:31;;;;;;;0.70;0.70;;;;;;;11.35;100.00;98832.25;6241649;22;20047;-52
2022/01/03 01:36:36;;;;;;;5.47;2.03;;;;;;;11.50;100.00;98816.03;6243345;22;20027;-51
2022/01/03 01:39:42;;;;;;;0.80;0.77;;;;;;;11.64;100.00;98817.81;6242854;22;20031;-51
2022/01/03 01:42:46;;;;;;;9.15;2.33;;;;;;;11.78;100.00;98816.81;6242432;22;20035;-51
2022/01/03 01:45:51;;;;;;;1.70;0.80;;;;;;;11.80;100.00;98816.31;6242981;22;20043;-52
2022/01/03 01:48:55;;;;;;;4.55;0.90;;;;;;;11.68;100.00;98823.94;6245056;22;20035;-52
2022/01/03 01:52:01;;;;;;;1.30;0.55;;;;;;;11.72;100.00;98813.28;6244181;22;20027;-52
2022/01/03 01:55:08;;;;;;;14.70;1.15;;;;;;;11.80;100.00;98817.06;6244658;22;20484;-52
2022/01/03 01:58:28;;;;;;;0.95;0.20;;;;;;;11.73;100.00;98808.47;6244633;22;20452;-51
2022/01/03 02:01:43;;;;;;;0.57;0.57;;;;;;;11.69;100.00;98808.72;6243633;22;20047;-51
2022/01/03 02:04:46;;;;;;;16.10;1.08;;;;;;;11.67;100.00;98811.28;6244720;22;20030;-51
2022/01/03 02:08:15;;;;;;;1.00;0.32;;;;;;;11.54;100.00;98813.00;6243509;22;20027;-51
2022/01/03 02:11:31;;;;;;;20.52;1.55;;;;;;;11.39;100.00;98807.69;6243536;22;20337;-51
2022/01/03 02:14:37;;;;;;;2.10;0.50;;;;;;;11.26;100.00;98793.50;6244297;22;20031;-51
2022/01/03 02:17:44;;;;;;;18.73;0.90;;;;;;;11.20;100.00;98801.06;6244420;22;20023;-51
2022/01/03 02:20:47;;;;;;;0.55;0.52;;;;;;;11.20;100.00;98795.50;6243176;22;20035;-51
2022/01/03 02:23:51;;;;;;;4.32;2.08;;;;;;;11.16;100.00;98789.41;6244834;22;20456;-51
2022/01/03 02:26:55;;;;;;;1.05;0.90;;;;;;;11.24;100.00;98790.47;6243810;22;20027;-52
2022/01/03 02:29:59;;;;;;;0.68;0.43;;;;;;;11.17;100.00;98785.38;6244559;22;20666;-52
2022/01/03 02:33:04;;;;;;;3.25;0.35;;;;;;;11.09;100.00;98787.13;6235433;22;20039;-52
2022/01/03 02:36:07;;;;;;;1.95;0.85;;;;;;;11.03;100.00;98780.78;6243537;22;20345;-52
2022/01/03 02:39:10;;;;;;;5.82;0.75;;;;;;;11.26;100.00;98777.53;6243615;22;20023;-52
2022/01/03 02:42:14;;;;;;;1.27;0.43;;;;;;;11.23;100.00;98786.13;6244085;22;20032;-52
2022/01/03 02:45:21;;;;;;;8.20;1.17;;;;;;;11.23;100.00;98772.97;6243144;22;20024;-51
2022/01/03 02:48:26;;;;;;;0.47;0.25;;;;;;;11.20;100.00;98773.22;6245725;22;20031;-51
2022/01/03 02:51:29;;;;;;;1.25;0.28;;;;;;;11.33;100.00;98771.44;6244850;22;20027;-51
2022/01/03 02:54:33;;;;;;;1.02;0.55;;;;;;;11.24;100.00;98770.94;6245413;22;21076;-51
2022/01/03 02:57:42;;;;;;;0.68;0.68;;;;;;;11.09;100.00;98764.84;6244306;22;20024;-52
2022/01/03 03:00:49;;;;;;;5.15;1.27;;;;;;;10.98;100.00;98759.28;6244075;22;20035;-51
2022/01/03 03:03:53;;;;;;;2.13;0.20;;;;;;;10.98;100.00;98768.38;6244341;22;20321;-52
2022/01/03 03:06:56;;;;;;;10.77;0.65;;;;;;;11.16;100.00;98772.69;6243656;22;20027;-51
2022/01/03 03:10:03;;;;;;;1.23;0.50;;;;;;;11.19;100.00;98760.56;6244057;22;20023;-51
2022/01/03 03:13:06;;;;;;;0.10;0.10;;;;;;;11.16;100.00;98758.78;6243555;22;20318;-51
2022/01/03 03:16:09;;;;;;;0.10;0.10;;;;;;;11.11;100.00;98759.56;6244236;22;20464;-52
2022/01/03 03:19:13;;;;;;;6.50;1.35;;;;;;;11.23;100.00;98755.47;6242522;22;20028;-52
2022/01/03 03:22:16;;;;;;;3.28;0.93;;;;;;;11.27;100.00;98744.84;6243258;22;20074;-51
2022/01/03 03:25:22;;;;;;;4.97;0.73;;;;;;;11.28;100.00;98735.97;6243278;22;20023;-50
2022/01/03 03:28:26;;;;;;;0.30;0.20;;;;;;;11.42;100.00;98739.75;6244925;22;20075;-51
2022/01/03 03:31:29;;;;;;;0.30;0.30;;;;;;;11.39;100.00;98746.38;6243770;22;20043;-51
2022/01/03 03:34:33;;;;;;;0.20;0.20;;;;;;;11.40;100.00;98747.88;6243562;22;20027;-52
2022/01/03 03:37:37;;;;;;;0.15;0.15;;;;;;;11.38;100.00;98744.84;6243751;22;20023;-51
2022/01/03 03:40:45;;;;;;;9.52;1.10;;;;;;;11.35;100.00;98745.84;6243451;22;20039;-52
2022/01/03 03:43:48;;;;;;;0.98;0.55;;;;;;;11.24;100.00;98757.03;6244055;22;20460;-51
2022/01/03 03:46:52;;;;;;;6.53;0.73;;;;;;;11.22;100.00;98748.38;6244366;22;20035;-52
2022/01/03 03:49:56;;;;;;;0.20;0.17;;;;;;;11.25;100.00;98750.16;6243688;22;20034;-52
2022/01/03 03:52:59;;;;;;;8.25;0.95;;;;;;;11.27;100.00;98751.19;6243413;22;20035;-52
2022/01/03 03:56:03;;;;;;;0.30;0.30;;;;;;;11.28;100.00;98746.38;6243145;22;20019;-52
2022/01/03 03:59:06;;;;;;;6.05;0.55;;;;;;;11.26;100.00;98749.66;6235897;22;20027;-52
2022/01/03 04:02:10;;;;;;;5.75;0.55;;;;;;;11.29;100.00;98743.06;6242647;22;20027;-51
2022/01/03 04:05:13;;;;;;;4.53;1.27;;;;;;;11.30;100.00;98738.25;6243191;22;20042;-52
2022/01/03 04:08:16;;;;;;;8.40;0.38;;;;;;;11.27;100.00;98733.69;6237387;22;20109;-51
2022/01/03 04:11:20;;;;;;;2.45;0.73;;;;;;;11.25;100.00;98736.22;6242557;22;20032;-51
2022/01/03 04:14:23;;;;;;;9.23;0.30;;;;;;;11.22;100.00;98728.88;6243169;22;20031;-51
2022/01/03 04:17:27;;;;;;;0.60;0.30;;;;;;;11.21;100.00;98730.16;6244387;22;20043;-52
2022/01/03 04:20:30;;;;;;;0.15;0.15;;;;;;;11.18;100.00;98736.72;6242841;22;20019;-51
2022/01/03 04:23:35;;;;;;;0.52;0.40;;;;;;;11.26;100.00;98740.56;6243692;22;20023;-51
2022/01/03 04:26:40;;;;;;;0.50;0.45;;;;;;;11.33;100.00;98737.22;6242544;22;20457;-51
2022/01/03 04:29:43;;;;;;;7.82;0.63;;;;;;;11.35;100.00;98729.13;6243407;22;20026;-51
2022/01/03 04:32:47;;;;;;;5.55;1.55;;;;;;;11.32;100.00;98742.06;6242765;22;20463;-51
2022/01/03 04:35:51;;;;;;;0.15;0.15;;;;;;;11.33;100.00;98732.44;6242931;22;20027;-52
2022/01/03 04:38:55;;;;;;;1.85;0.35;;;;;;;11.36;100.00;98728.63;6243119;22;20345;-51
2022/01/03 04:41:58;;;;;;;0.25;0.25;;;;;;;11.32;100.00;98724.56;6243120;22;20023;-52
2022/01/03 04:45:02;;;;;;;0.55;0.52;;;;;;;11.24;100.00;98723.56;6242803;22;20031;-51
2022/01/03 04:48:06;;;;;;;5.97;0.95;;;;;;;11.24;100.00;98734.72;6242897;22;20031;-52
2022/01/03 04:51:10;;;;;;;1.83;0.50;;;;;;;11.15;100.00;98715.47;6242781;22;20027;-52
2022/01/03 04:54:14;;;;;;;0.52;0.32;;;;;;;11.08;100.00;98715.97;6242719;22;20361;-51
2022/01/03 04:57:17;;;;;;;0.50;0.50;;;;;;;11.05;100.00;98716.97;6241358;22;20043;-51
2022/01/03 05:00:21;;;;;;;0.85;0.32;;;;;;;11.17;100.00;98730.41;6242593;22;20023;-51
2022/01/03 05:03:24;;;;;;;7.68;0.65;;;;;;;11.11;100.00;98732.41;6242873;22;20023;-51
2022/01/03 05:06:29;;;;;;;5.82;1.17;;;;;;;11.01;100.00;98736.72;6243141;22;20027;-51
2022/01/03 05:09:32;;;;;;;0.10;0.10;;;;;;;11.03;100.00;98725.06;6243635;22;20476;-51
2022/01/03 05:12:36;;;;;;;0.55;0.20;;;;;;;11.16;100.00;98722.53;6243526;22;20031;-51
2022/01/03 05:15:39;;;;;;;4.95;0.25;;;;;;;11.16;100.00;98711.41;6242182;22;20031;-51
2022/01/03 05:18:43;;;;;;;0.95;0.28;;;;;;;11.28;100.00;98719.25;6242677;22;20031;-51
2022/01/03 05:21:47;;;;;;;0.75;0.50;;;;;;;11.36;100.00;98722.28;6241748;22;20027;-51
2022/01/03 05:24:50;;;;;;;0.45;0.20;;;;;;;11.38;100.00;98716.97;6242791;22;20349;-52
2022/01/03 05:27:54;;;;;;;0.40;0.22;;;;;;;11.20;100.00;98711.91;6242261;22;20466;-51
2022/01/03 05:30:57;;;;;;;15.38;0.88;;;;;;;11.07;100.00;98715.19;6242457;22;20516;-51
2022/01/03 05:34:01;;;;;;;7.90;0.50;;;;;;;11.01;100.00;98728.38;6242464;22;20346;-51
2022/01/03 05:37:04;;;;;;;0.10;0.10;;;;;;;11.05;100.00;98711.41;6242314;22;20500;-51
2022/01/03 05:40:08;;;;;;;1.55;1.00;;;;;;;11.00;100.00;98712.19;6242816;22;20047;-51
2022/01/03 05:43:12;;;;;;;0.17;0.10;;;;;;;10.95;100.00;98721.28;6242221;22;20031;-51
2022/01/03 05:46:15;;;;;;;1.10;0.52;;;;;;;10.97;100.00;98713.19;6242511;22;20050;-52
2022/01/03 05:49:18;;;;;;;0.10;0.08;;;;;;;10.91;100.00;98718.00;6241875;22;20031;-50
2022/01/03 05:52:22;;;;;;;1.00;0.55;;;;;;;10.91;100.00;98721.53;6242169;22;20068;-51
2022/01/03 05:55:26;;;;;;;0.20;0.17;;;;;;;11.03;100.00;98716.72;6243485;22;20507;-51
2022/01/03 05:58:29;;;;;;;0.10;0.10;;;;;;;11.02;100.00;98718.00;6243201;22;20027;-51
2022/01/03 06:01:36;;;;;;;0.50;0.47;;;;;;;10.99;100.00;98716.22;6242373;22;20047;-51
2022/01/03 06:05:02;;;;;;;0.68;0.17;;;;;;;10.94;100.00;98708.59;6243329;22;20031;-51
2022/01/03 06:08:04;;;;;;;0.20;0.20;;;;;;;11.05;100.00;98716.97;6241779;22;20027;-52
2022/01/03 06:11:07;;;;;;;0.65;0.20;;;;;;;11.12;100.00;98724.81;6234986;22;20075;-52
2022/01/03 06:14:11;;;;;;;0.43;0.15;;;;;;;11.16;100.00;98716.97;6241590;22;20027;-52
2022/01/03 06:17:15;;;;;;;1.65;0.68;;;;;;;11.24;100.00;98723.56;6242435;22;20043;-51
2022/01/03 06:20:19;;;;;;;0.10;0.10;;;;;;;11.19;100.00;98727.88;6241962;22;20047;-50
2022/01/03 06:23:22;;;;;;;1.17;0.63;;;;;;;11.21;100.00;98730.91;6243898;22;20035;-51
2022/01/03 06:26:26;;;;;;;32.70;2.30;;;;;;;11.24;100.00;98729.16;6241769;22;20034;-51
2022/01/03 06:29:30;;;;;;;6.70;0.75;;;;;;;11.27;100.00;98726.09;6244261;22;20036;-51
2022/01/03 06:32:34;;;;;;;4.90;0.65;;;;;;;11.26;100.00;98726.63;6243208;22;20350;-52
2022/01/03 06:35:38;;;;;;;4.07;1.02;;;;;;;11.22;100.00;98709.38;6244667;22;20035;-51
2022/01/03 06:38:42;;;;;;;0.80;0.73;;;;;;;11.12;100.00;98713.69;6244101;22;20027;-52
2022/01/03 06:41:45;;;;;;;0.52;0.25;;;;;;;11.11;100.00;98715.72;6243941;22;20023;-52
2022/01/03 06:44:49;;;;;;;0.50;0.25;;;;;;;11.12;100.00;98716.47;6244317;22;20039;-52
2022/01/03 06:47:53;;;;;;;1.98;0.55;;;;;;;11.22;100.00;98706.56;6243993;22;20027;-52
2022/01/03 06:50:57;;;;;;;1.13;0.68;;;;;;;11.18;100.00;98708.88;6242945;22;20035;-52
2022/01/03 06:54:06;;;;;;;0.20;0.20;;;;;;;11.19;100.00;98699.25;6244093;22;20457;-52
2022/01/03 06:57:10;;;;;;;0.40;0.40;;;;;;;11.14;100.00;98702.78;6243908;22;20027;-52
2022/01/03 07:00:15;;;;;;;5.78;0.75;;;;;;;11.16;100.00;98711.41;6244058;22;20031;-52
2022/01/03 07:03:18;;;;;;;0.22;0.22;;;;;;;11.09;100.00;98706.31;6243425;22;20027;-51
2022/01/03 07:06:22;;;;;;;0.20;0.20;;;;;;;11.10;100.00;98710.66;6244693;22;20031;-51
2022/01/03 07:09:25;;;;;;;0.15;0.10;;;;;;;11.06;100.00;98713.69;6243607;22;20031;-51
2022/01/03 07:12:29;;;;;;;1.58;0.15;;;;;;;10.96;100.00;98700.53;6244050;22;20032;-52
2022/01/03 07:18:59;;;;;;;0.20;0.20;;;;;;;10.76;100.00;98706.31;6244538;22;20027;-51
2022/01/03 07:22:04;;;;;;;0.10;0.10;;;;;;;10.63;100.00;98698.47;6244642;22;20468;-51
2022/01/03 07:25:09;;;;;;;0.10;0.10;;;;;;;10.50;100.00;98698.19;6243557;22;20349;-52
2022/01/03 07:28:14;;;;;;;2.05;0.22;;;;;;;10.41;100.00;98701.97;6244583;22;20026;-52
2022/01/03 07:31:17;;;;;;;2.65;0.73;;;;;;;10.34;100.00;98696.88;6243388;22;20035;-51
2022/01/03 07:34:21;;;;;;;0.45;0.45;;;;;;;10.28;100.00;98684.97;6246235;22;20031;-51
2022/01/03 07:37:24;;;;;;;2.75;0.32;;;;;;;10.22;100.00;98689.75;6245369;22;20031;-51
2022/01/03 07:40:29;;;;;;;0.15;0.15;;;;;;;10.09;100.00;98686.63;6251488;22;20527;-52
2022/01/03 07:43:55;;;;;;;0.15;0.15;;;;;;;9.96;100.00;98686.38;6244089;22;20031;-51
2022/01/03 07:46:58;;;;;;;0.57;0.50;;;;;;;9.98;100.00;98692.19;6253000;22;20030;-48
2022/01/03 07:50:03;;;;;;;0.10;0.10;;;;;;;9.89;100.00;98684.81;6299022;22;20022;-48
2022/01/03 07:53:07;;;;;;;12.70;0.47;;;;;;;9.83;100.00;98678.44;6303043;22;20026;-91
2022/01/03 07:56:11;;;;;;;2.50;0.10;;;;;;;9.79;100.00;98694.63;6216752;23;20347;-85
2022/01/03 07:59:14;;;;;;;0.82;0.57;;;;;;;9.66;100.00;98696.31;6198844;23;20024;-83
2022/01/03 08:02:18;;;;;;;0.10;0.10;;;;;;;9.68;100.00;98716.78;6197718;23;20024;-85
2022/01/03 08:05:22;;;;;;;0.10;0.10;;;;;;;9.57;100.00;98708.38;6198362;23;20028;-83
2022/01/03 08:08:26;;;;;;;1.88;0.57;;;;;;;9.54;100.00;98711.41;6195421;23;20039;-84
2022/01/03 08:11:29;;;;;;;9.73;0.40;;;;;;;9.53;100.00;98713.41;6195911;23;20465;-84
2022/01/03 08:14:32;;;;;;;0.90;0.45;;;;;;;9.50;100.00;98722.00;6215591;23;20027;-83
2022/01/03 08:17:36;;;;;;;0.10;0.00;;;;;;;9.57;100.00;98721.53;6197882;23;20040;-83
2022/01/03 08:20:39;;;;;;;1.17;0.30;;;;;;;9.69;100.00;98723.13;6197135;23;20458;-83
2022/01/03 08:23:43;;;;;;;13.45;1.65;;;;;;;9.79;100.00;98721.66;6195613;23;20024;-83
2022/01/03 08:26:46;;;;;;;0.10;0.10;;;;;;;9.97;100.00;98732.38;6196639;23;20020;-83
2022/01/03 08:29:49;;;;;;;19.65;0.68;;;;;;;10.09;100.00;98731.16;6206416;23;20469;-84
2022/01/03 08:32:53;;;;;;;0.65;0.32;;;;;;;10.17;100.00;98732.25;6197566;23;20024;-91
2022/01/03 08:35:57;;;;;;;6.65;0.73;;;;;;;10.20;100.00;98734.00;6198662;23;20343;-93
2022/01/03 08:39:01;;;;;;;4.95;0.55;;;;;;;10.21;100.00;98727.19;6208129;23;20199;-93
2022/01/03 08:42:05;;;;;;;0.30;0.30;;;;;;;10.15;100.00;98720.84;6215783;23;20039;-85
2022/01/03 08:45:09;;;;;;;2.03;0.22;;;;;;;10.06;100.00;98712.69;6198441;23;20367;-91
2022/01/03 08:48:12;;;;;;;6.53;0.28;;;;;;;10.02;100.00;98728.88;6198554;23;20028;-90
2022/01/03 08:51:15;;;;;;;0.10;0.10;;;;;;;9.93;100.00;98738.19;6196704;23;20019;-85
2022/01/03 08:54:19;;;;;;;9.52;0.45;;;;;;;9.98;100.00;98739.47;6197653;23;20043;-94
2022/01/03 08:57:22;;;;;;;2.28;0.45;;;;;;;9.98;100.00;98750.59;6217276;23;20024;-93
2022/01/03 09:00:26;;;;;;;2.78;0.75;;;;;;;9.89;100.00;98748.00;6218362;23;20028;-92
2022/01/03 09:03:29;;;;;;;0.10;0.00;;;;;;;9.80;100.00;98756.56;6197310;23;20027;-88
2022/01/03 09:06:35;;;;;;;1.38;0.17;;;;;;;9.80;100.00;98754.53;6197482;23;20024;-91
2022/01/03 09:09:39;;;;;;;1.52;0.45;;;;;;;9.64;100.00;98748.84;6199604;23;20028;-87
2022/01/03 09:12:43;;;;;;;0.10;0.00;;;;;;;9.58;100.00;98759.19;6198198;23;20024;-91
2022/01/03 09:15:48;;;;;;;0.10;0.00;;;;;;;9.54;100.00;98750.31;6207598;23;20024;-88
2022/01/03 09:18:51;;;;;;;0.17;0.00;;;;;;;9.60;100.00;98765.00;6198218;23;20020;-87
2022/01/03 09:22:06;;;;;;;8.48;1.00;;;;;;;9.64;100.00;98759.97;6207161;23;20023;-83
2022/01/03 09:31:44;;;;;;;0.60;0.50;;;;;;;9.68;100.00;98763.31;6215304;23;20024;-96
2022/01/03 09:34:47;;;;;;;6.93;1.25;;;;;;;9.70;100.00;98763.56;6216443;23;20019;-94
2022/01/03 09:37:51;;;;;;;1.63;0.55;;;;;;;9.71;100.00;98751.94;6214602;23;20482;-95
2022/01/03 09:41:00;;;;;;;4.63;0.65;;;;;;;9.70;100.00;98753.19;6194099;23;20028;-93
2022/01/03 09:44:08;;;;;;;0.68;0.50;;;;;;;9.75;100.00;98751.72;6214634;23;20023;-95
2022/01/03 09:47:16;;;;;;;19.83;1.48;;;;;;;9.83;100.00;98755.56;6197435;23;20040;-92
2022/01/03 09:50:21;;;;;;;16.88;2.80;;;;;;;9.93;100.00;98748.53;6195132;23;20024;-91
2022/01/03 09:53:27;;;;;;;3.78;1.23;;;;;;;9.98;100.00;98747.81;6197609;23;20841;-94
2022/01/03 09:56:32;;;;;;;5.82;1.10;;;;;;;10.14;100.00;98752.69;6215376;23;20069;-94
2022/01/03 09:59:36;;;;;;;0.75;0.25;;;;;;;10.34;100.00;98746.97;6195832;23;20023;-86
2022/01/03 10:02:41;;;;;;;0.82;0.52;;;;;;;10.52;100.00;98740.97;6214645;23;20024;-93
2022/01/03 10:05:44;;;;;;;2.38;1.60;;;;;;;10.64;100.00;98750.09;6196397;23;20024;-93
2022/01/03 10:08:48;;;;;;;6.45;2.60;;;;;;;10.84;100.00;98743.53;6197018;23;20063;-91
2022/01/03 10:11:51;;;;;;;7.90;1.15;;;;;;;10.96;100.00;98731.16;6197432;23;20023;-91
2022/01/03 10:14:55;;;;;;;17.63;3.85;;;;;;;10.93;100.00;98732.16;6200057;23;20019;-94
2022/01/03 10:17:59;;;;;;;5.32;1.30;;;;;;;10.87;100.00;98734.94;6218178;23;20053;-96
2022/01/03 10:21:04;;;;;;;12.25;2.05;;;;;;;10.87;100.00;98731.41;6218430;23;20073;-92
2022/01/03 10:24:10;;;;;;;13.40;2.45;;;;;;;10.82;100.00;98732.91;6216595;23;20020;-91
2022/01/03 10:27:13;;;;;;;9.30;2.03;;;;;;;10.84;100.00;98730.38;6197396;23;20339;-90
2022/01/03 10:30:42;;;;;;;4.32;1.67;;;;;;;10.95;100.00;98724.06;6216884;23;20362;-92
2022/01/03 10:33:47;;;;;;;2.90;1.38;;;;;;;11.12;100.00;98722.03;6200356;23;20024;-94
2022/01/03 10:36:53;;;;;;;7.30;1.30;;;;;;;11.22;100.00;98728.88;6198985;23;20024;-91
2022/01/03 10:39:56;;;;;;;14.85;1.98;;;;;;;11.22;100.00;98712.16;6199814;23;20020;-92
2022/01/03 10:43:19;;;;;;;11.43;1.83;;;;;;;11.22;100.00;98714.94;6199464;23;20060;-92
2022/01/03 10:46:31;;;;;;;3.47;1.48;;;;;;;11.19;100.00;98700.03;6196977;23;20020;-88
2022/01/03 10:49:37;;;;;;;3.60;1.65;;;;;;;11.14;100.00;98705.56;6214114;23;20032;-84
2022/01/03 11:10:51;;;;;;;13.85;0.50;;;;;;;11.71;100.00;98682.72;5057301;28;20515;-48
2022/01/03 11:13:55;;;;;;;2.10;0.22;;;;;;;11.74;100.00;98665.69;5064988;28;20046;-49
2022/01/03 11:16:59;;;;;;;4.15;0.28;;;;;;;11.76;100.00;98668.75;5064316;28;20190;-47
2022/01/03 11:20:03;;;;;;;6.30;0.57;;;;;;;11.90;100.00;98653.72;5074822;28;20445;-47
2022/01/03 11:23:07;;;;;;;7.78;0.80;;;;;;;12.05;100.00;98656.97;5061739;28;21339;-48
2022/01/03 11:26:17;;;;;;;2.13;0.38;;;;;;;12.32;100.00;98651.75;5081035;28;20063;-48
2022/01/03 11:29:21;;;;;;;0.80;0.65;;;;;;;12.66;100.00;98648.22;5072846;28;20050;-48
2022/01/03 11:32:25;;;;;;;0.45;0.28;;;;;;;12.77;100.00;98650.16;5070957;28;20055;-48
2022/01/03 11:35:29;;;;;;;1.17;0.73;;;;;;;12.94;100.00;98643.19;5082876;28;20060;-48
2022/01/03 11:38:38;;;;;;;4.15;0.68;;;;;;;13.02;100.00;98645.38;5083820;28;20677;-48
2022/01/03 11:41:43;;;;;;;2.30;0.40;;;;;;;12.95;100.00;98657.88;5077612;28;20114;-48
2022/01/03 11:44:47;;;;;;;1.00;0.57;;;;;;;12.93;100.00;98643.69;5059531;28;20102;-48
2022/01/03 11:47:51;;;;;;;6.00;0.95;;;;;;;12.89;100.00;98643.22;5086411;28;20051;-48
2022/01/03 11:51:00;;;;;;;0.10;0.10;;;;;;;12.84;100.00;98646.81;5076110;28;20423;-48
2022/01/03 11:54:06;;;;;;;0.30;0.10;;;;;;;13.60;100.00;98644.56;5064271;28;20060;-52
2022/01/03 11:57:34;;;;;;;0.10;0.10;;;;;;;13.65;100.00;98640.97;5085349;28;20408;-48
2022/01/03 12:04:38;;;;;;;1.85;0.30;;;;;;;13.61;100.00;98643.31;5036921;28;20068;-49
2022/01/03 12:07:56;;;;;;;4.63;0.45;;;;;;;13.53;100.00;98639.59;5070835;28;20057;-47
2022/01/03 12:11:01;;;;;;;5.85;0.95;;;;;;;13.39;100.00;98632.34;5070525;28;20055;-49
2022/01/03 12:14:05;;;;;;;4.32;0.22;;;;;;;13.34;100.00;98638.75;5053725;28;20516;-49
2022/01/03 12:17:10;;;;;;;1.23;0.20;;;;;;;13.31;100.00;98628.63;5062182;28;20056;-47
2022/01/03 12:20:14;;;;;;;0.10;0.00;;;;;;;13.31;100.00;98625.84;5069228;28;20419;-48
2022/01/03 12:23:36;;;;;;;0.20;0.20;;;;;;;13.41;100.00;98626.97;5061360;28;20059;-48
2022/01/03 12:27:01;;;;;;;0.32;0.05;;;;;;;12.98;100.00;98634.50;5069808;28;20412;-48
2022/01/03 12:30:06;;;;;;;2.58;0.75;;;;;;;12.81;100.00;98626.25;5050647;28;20044;-48
2022/01/03 12:33:12;;;;;;;3.30;0.40;;;;;;;12.88;100.00;98622.16;5071086;28;20047;-48
2022/01/03 12:36:19;;;;;;;2.25;0.63;;;;;;;13.01;100.00;98615.94;5069621;28;20048;-49
2022/01/03 12:39:23;;;;;;;0.17;0.17;;;;;;;13.08;100.00;98615.41;5069952;28;20055;-51
2022/01/03 12:42:45;;;;;;;0.30;0.30;;;;;;;13.08;100.00;98599.34;5071155;28;20044;-54
2022/01/03 12:45:50;;;;;;;1.33;0.63;;;;;;;13.11;100.00;98586.38;5071974;28;20059;-54
2022/01/03 12:48:55;;;;;;;0.20;0.10;;;;;;;13.11;100.00;98587.13;5072128;28;20056;-54
2022/01/03 12:52:18;;;;;;;0.30;0.22;;;;;;;13.25;100.00;98588.78;5072018;28;20519;-54
2022/01/03 12:55:37;;;;;;;2.58;0.50;;;;;;;13.33;100.00;98578.53;5071846;28;20064;-54
2022/01/03 12:58:42;;;;;;;0.85;0.20;;;;;;;13.30;100.00;98581.59;5070588;28;20056;-54
2022/01/03 13:01:45;;;;;;;8.30;1.20;;;;;;;13.35;100.00;98573.16;5051934;28;20056;-50
2022/01/03 13:04:48;;;;;;;0.63;0.52;;;;;;;13.34;100.00;98571.63;5071710;28;20055;-49
2022/01/03 13:07:52;;;;;;;0.40;0.40;;;;;;;13.28;100.00;98568.16;5089135;22;20063;-54
2022/01/03 13:11:04;;;;;;;0.40;0.40;;;;;;;13.08;100.00;98560.22;5087848;22;20060;-54
2022/01/03 13:14:20;;;;;;;0.10;0.10;;;;;;;12.96;100.00;98564.41;5052065;28;20377;-49
2022/01/03 13:17:24;;;;;;;0.60;0.40;;;;;;;12.87;100.00;98561.94;5050815;28;20060;-54
2022/01/03 13:20:27;;;;;;;4.03;0.30;;;;;;;12.84;100.00;98546.97;5051913;28;20045;-50
2022/01/03 13:23:32;;;;;;;0.20;0.20;;;;;;;12.84;100.00;98551.81;5067275;28;20047;-54
2022/01/03 13:26:49;;;;;;;1.30;0.15;;;;;;;12.80;100.00;98554.13;5071604;28;20048;-54
2022/01/03 13:29:59;;;;;;;0.55;0.17;;;;;;;12.68;100.00;98547.13;5070989;28;20063;-54
2022/01/03 13:33:02;;;;;;;1.20;0.50;;;;;;;12.49;100.00;98549.84;5070422;28;20071;-54
2022/01/03 13:36:06;;;;;;;0.63;0.55;;;;;;;12.29;100.00;98546.69;5071173;28;20060;-54
2022/01/03 13:39:13;;;;;;;0.20;0.17;;;;;;;12.27;100.00;98550.03;5070918;28;20059;-54
2022/01/03 13:42:25;;;;;;;0.45;0.45;;;;;;;12.50;100.00;98545.00;5067542;28;20071;-54
2022/01/03 13:49:11;;;;;;;8.52;1.17;;;;;;;12.52;100.00;98531.28;5055640;28;20443;-54
2022/01/03 13:52:15;;;;;;;0.95;0.10;;;;;;;12.54;100.00;98539.91;5068968;28;20055;-54
2022/01/03 13:55:23;;;;;;;0.40;0.40;;;;;;;12.61;100.00;98520.53;5070324;28;20055;-54
2022/01/03 13:58:27;;;;;;;9.55;0.77;;;;;;;12.62;100.00;98527.66;5071291;28;20055;-54
2022/01/03 14:01:30;;;;;;;11.82;1.50;;;;;;;12.66;100.00;98518.97;5071015;28;20085;-53
2022/01/03 14:04:35;;;;;;;0.15;0.15;;;;;;;12.72;100.00;98516.88;5050206;28;20068;-54
2022/01/03 14:07:51;;;;;;;6.85;0.65;;;;;;;12.71;100.00;98504.94;5050546;28;20056;-54
2022/01/03 14:10:54;;;;;;;10.32;1.98;;;;;;;12.71;100.00;98487.44;5050758;28;20064;-54
2022/01/03 14:14:11;;;;;;;4.05;0.55;;;;;;;12.65;100.00;98495.88;5069663;28;20059;-54
2022/01/03 14:17:15;;;;;;;0.10;0.10;;;;;;;12.58;100.00;98495.69;5050997;28;20064;-54
2022/01/03 14:20:22;;;;;;;1.45;0.40;;;;;;;12.46;100.00;98500.63;5050196;28;20052;-53
2022/01/03 14:23:26;;;;;;;10.98;0.55;;;;;;;12.49;100.00;98490.44;5065575;28;20059;-54
2022/01/03 14:26:31;;;;;;;0.20;0.20;;;;;;;12.37;100.00;98487.00;5070527;28;20393;-53
2022/01/03 14:29:37;;;;;;;0.75;0.52;;;;;;;12.44;100.00;98491.25;5070663;28;20083;-54
2022/01/03 14:32:42;;;;;;;1.77;0.40;;;;;;;12.38;100.00;98482.16;5070301;28;20087;-54
2022/01/03 14:35:45;;;;;;;2.88;0.93;;;;;;;12.59;100.00;98474.84;5070044;28;20166;-54
2022/01/03 14:38:59;;;;;;;0.82;0.65;;;;;;;12.50;100.00;98483.56;5070306;28;20059;-54
2022/01/03 14:42:07;;;;;;;2.80;0.82;;;;;;;12.49;100.00;98473.69;5070772;28;20523;-54
2022/01/03 14:45:14;;;;;;;2.05;0.40;;;;;;;12.26;100.00;98475.19;5064220;28;20059;-54
2022/01/03 14:48:22;;;;;;;0.65;0.30;;;;;;;12.14;100.00;98475.28;5053577;28;20056;-52
2022/01/03 14:51:52;;;;;;;1.73;0.95;;;;;;;12.29;100.00;98468.53;5050363;28;20588;-54
2022/01/03 14:54:55;;;;;;;4.80;1.38;;;;;;;12.42;100.00;98465.88;5050384;28;20052;-54
2022/01/03 14:58:01;;;;;;;0.70;0.47;;;;;;;12.44;100.00;98468.91;5050116;28;20060;-54
2022/01/03 15:01:04;;;;;;;1.10;0.57;;;;;;;12.47;100.00;98457.47;5050009;28;20124;-54
2022/01/03 15:04:07;;;;;;;5.15;1.30;;;;;;;12.66;100.00;98458.28;5053137;28;20052;-54
2022/01/03 15:07:13;;;;;;;2.65;1.35;;;;;;;12.76;100.00;98467.81;5052177;28;20416;-54